Impacts TAF Board
For situational awareness. Not to be used for flight planning purposes.
IDs:

KSAN - San Diego Intl Arpt, CA, US

Issued at 2320 UTC 16 Jul 2019
Updated at 0047 UTC 17 Jul 2019
Potential Impact None Slight Moderate High
Time<<17/13Z 17/14Z 17/15Z 17/16Z 17/17Z 17/18Z 17/19Z 17/20Z 17/21Z 17/22Z 17/23Z 18/00Z 18/01Z>>
Type PRVL PRVL PRVL PRVL PRVL PRVL PRVL PRVL PRVL PRVL PRVL PRVL PRVL
VIS 3 3 3 6 6 6 >6 >6 >6 >6 >6 >6 >6
CIG 6 6 6 9 9 9 -- -- -- -- -- -- 12
Cover OVC OVC OVC BKN BKN BKN SCT SCT SCT SCT SCT SCT BKN
FltCat IFR IFR IFR IFR IFR IFR VFR VFR VFR VFR VFR VFR MVFR
WX BR BR BR HZ HZ HZ -- -- -- -- -- -- --
WDir 180 180 180 180 180 180 200 200 200 200 200 200 230
WSpd 5 5 5 7 7 7 10 10 10 10 10 10 6
WGst -- -- -- -- -- -- -- -- -- -- -- -- --
Raw TAF
KSAN 162320Z 1700/1806 23006KT P6SM OVC009
  FM171000 18005KT 3SM BR OVC006
  FM171600 18007KT 6SM HZ BKN009
  FM171900 20010KT P6SM SCT012
  FM180100 23006KT P6SM BKN012


METAR Board
Radar Display
Forecast Discussion
For situational awareness. Not to be used for flight planning purposes.